sensor_id;sensor_type;location;lat;lon;timestamp;P1;durP1;ratioP1;P2;durP2;ratioP2
25553;SDS011;13446;50.926;5.332;2024-02-16T00:00:02;3.83;;;2.05;;
25553;SDS011;13446;50.926;5.332;2024-02-16T00:02:28;3.80;;;1.80;;
25553;SDS011;13446;50.926;5.332;2024-02-16T00:04:54;4.55;;;2.42;;
25553;SDS011;13446;50.926;5.332;2024-02-16T00:07:20;3.05;;;2.10;;
25553;SDS011;13446;50.926;5.332;2024-02-16T00:09:46;3.97;;;1.77;;
25553;SDS011;13446;50.926;5.332;2024-02-16T00:12:33;5.78;;;2.40;;
25553;SDS011;13446;50.926;5.332;2024-02-16T00:15:08;6.45;;;2.33;;
25553;SDS011;13446;50.926;5.332;2024-02-16T00:17:35;3.78;;;2.10;;
25553;SDS011;13446;50.926;5.332;2024-02-16T00:20:02;4.40;;;2.05;;
25553;SDS011;13446;50.926;5.332;2024-02-16T00:22:28;4.97;;;2.22;;
25553;SDS011;13446;50.926;5.332;2024-02-16T00:24:55;4.57;;;1.90;;
25553;SDS011;13446;50.926;5.332;2024-02-16T00:27:20;4.40;;;2.20;;
25553;SDS011;13446;50.926;5.332;2024-02-16T00:29:46;3.83;;;2.10;;
25553;SDS011;13446;50.926;5.332;2024-02-16T00:32:12;4.72;;;2.85;;
25553;SDS011;13446;50.926;5.332;2024-02-16T00:34:38;4.88;;;2.40;;
25553;SDS011;13446;50.926;5.332;2024-02-16T00:37:04;4.07;;;2.30;;
25553;SDS011;13446;50.926;5.332;2024-02-16T00:39:34;4.93;;;2.58;;
25553;SDS011;13446;50.926;5.332;2024-02-16T00:42:05;4.25;;;1.80;;
25553;SDS011;13446;50.926;5.332;2024-02-16T00:44:31;6.20;;;2.30;;
25553;SDS011;13446;50.926;5.332;2024-02-16T00:46:56;8.02;;;1.95;;
25553;SDS011;13446;50.926;5.332;2024-02-16T00:49:35;5.15;;;2.20;;
25553;SDS011;13446;50.926;5.332;2024-02-16T00:52:01;7.10;;;2.22;;
25553;SDS011;13446;50.926;5.332;2024-02-16T00:54:30;3.53;;;2.03;;
25553;SDS011;13446;50.926;5.332;2024-02-16T00:56:56;6.40;;;2.17;;
25553;SDS011;13446;50.926;5.332;2024-02-16T00:59:27;6.57;;;2.22;;
25553;SDS011;13446;50.926;5.332;2024-02-16T01:01:54;5.85;;;2.38;;
25553;SDS011;13446;50.926;5.332;2024-02-16T01:04:19;4.90;;;1.90;;
25553;SDS011;13446;50.926;5.332;2024-02-16T01:06:45;6.28;;;2.35;;
25553;SDS011;13446;50.926;5.332;2024-02-16T01:09:11;8.18;;;2.40;;
25553;SDS011;13446;50.926;5.332;2024-02-16T01:11:38;3.88;;;2.42;;
25553;SDS011;13446;50.926;5.332;2024-02-16T01:14:07;4.65;;;1.98;;
25553;SDS011;13446;50.926;5.332;2024-02-16T01:16:33;4.85;;;2.58;;
25553;SDS011;13446;50.926;5.332;2024-02-16T01:19:00;3.38;;;2.30;;
25553;SDS011;13446;50.926;5.332;2024-02-16T01:21:26;5.45;;;2.10;;
25553;SDS011;13446;50.926;5.332;2024-02-16T01:23:53;4.65;;;2.20;;
25553;SDS011;13446;50.926;5.332;2024-02-16T01:26:19;4.63;;;2.75;;
25553;SDS011;13446;50.926;5.332;2024-02-16T01:28:44;5.25;;;2.17;;
25553;SDS011;13446;50.926;5.332;2024-02-16T01:31:10;5.10;;;2.40;;
25553;SDS011;13446;50.926;5.332;2024-02-16T01:33:36;4.97;;;2.53;;
25553;SDS011;13446;50.926;5.332;2024-02-16T01:36:03;4.75;;;2.65;;
25553;SDS011;13446;50.926;5.332;2024-02-16T01:38:29;2.95;;;2.20;;
25553;SDS011;13446;50.926;5.332;2024-02-16T01:40:54;6.72;;;2.38;;
25553;SDS011;13446;50.926;5.332;2024-02-16T01:43:23;9.05;;;2.67;;
25553;SDS011;13446;50.926;5.332;2024-02-16T01:45:49;4.45;;;2.30;;
25553;SDS011;13446;50.926;5.332;2024-02-16T01:48:16;3.42;;;2.20;;
25553;SDS011;13446;50.926;5.332;2024-02-16T01:50:42;5.78;;;2.22;;
25553;SDS011;13446;50.926;5.332;2024-02-16T01:53:08;3.85;;;2.15;;
25553;SDS011;13446;50.926;5.332;2024-02-16T01:55:35;8.57;;;2.42;;
25553;SDS011;13446;50.926;5.332;2024-02-16T01:58:01;5.97;;;2.50;;
25553;SDS011;13446;50.926;5.332;2024-02-16T02:00:28;6.82;;;2.55;;
25553;SDS011;13446;50.926;5.332;2024-02-16T02:02:54;6.10;;;2.40;;
25553;SDS011;13446;50.926;5.332;2024-02-16T02:05:19;4.28;;;2.50;;
25553;SDS011;13446;50.926;5.332;2024-02-16T02:07:45;4.25;;;2.35;;
25553;SDS011;13446;50.926;5.332;2024-02-16T02:10:11;6.40;;;2.35;;
25553;SDS011;13446;50.926;5.332;2024-02-16T02:12:38;4.95;;;2.30;;
25553;SDS011;13446;50.926;5.332;2024-02-16T02:15:04;7.07;;;2.60;;
25553;SDS011;13446;50.926;5.332;2024-02-16T02:17:31;5.60;;;2.40;;
25553;SDS011;13446;50.926;5.332;2024-02-16T02:19:56;5.97;;;2.30;;
25553;SDS011;13446;50.926;5.332;2024-02-16T02:22:22;5.70;;;2.28;;
25553;SDS011;13446;50.926;5.332;2024-02-16T02:24:48;3.38;;;2.20;;
25553;SDS011;13446;50.926;5.332;2024-02-16T02:27:14;5.80;;;2.83;;
25553;SDS011;13446;50.926;5.332;2024-02-16T02:29:40;9.88;;;2.85;;
25553;SDS011;13446;50.926;5.332;2024-02-16T02:32:07;4.18;;;2.47;;
25553;SDS011;13446;50.926;5.332;2024-02-16T02:34:36;4.32;;;2.88;;
25553;SDS011;13446;50.926;5.332;2024-02-16T02:37:02;3.53;;;2.63;;
25553;SDS011;13446;50.926;5.332;2024-02-16T02:39:29;5.70;;;2.33;;
25553;SDS011;13446;50.926;5.332;2024-02-16T02:41:55;4.53;;;2.53;;
25553;SDS011;13446;50.926;5.332;2024-02-16T02:44:22;8.10;;;2.63;;
25553;SDS011;13446;50.926;5.332;2024-02-16T02:46:51;3.47;;;2.55;;
25553;SDS011;13446;50.926;5.332;2024-02-16T02:49:17;5.53;;;2.42;;
25553;SDS011;13446;50.926;5.332;2024-02-16T02:51:43;4.65;;;2.30;;
25553;SDS011;13446;50.926;5.332;2024-02-16T02:54:08;5.60;;;2.45;;
25553;SDS011;13446;50.926;5.332;2024-02-16T02:56:34;3.65;;;2.60;;
25553;SDS011;13446;50.926;5.332;2024-02-16T02:59:00;5.13;;;2.45;;
25553;SDS011;13446;50.926;5.332;2024-02-16T03:01:31;6.28;;;2.53;;
25553;SDS011;13446;50.926;5.332;2024-02-16T03:03:57;4.40;;;2.50;;
25553;SDS011;13446;50.926;5.332;2024-02-16T03:06:25;6.55;;;2.67;;
25553;SDS011;13446;50.926;5.332;2024-02-16T03:08:50;6.28;;;2.55;;
25553;SDS011;13446;50.926;5.332;2024-02-16T03:11:19;5.25;;;2.58;;
25553;SDS011;13446;50.926;5.332;2024-02-16T03:13:46;5.93;;;2.78;;
25553;SDS011;13446;50.926;5.332;2024-02-16T03:16:11;5.72;;;2.65;;
25553;SDS011;13446;50.926;5.332;2024-02-16T03:18:40;6.25;;;2.45;;
25553;SDS011;13446;50.926;5.332;2024-02-16T03:21:05;6.57;;;2.67;;
25553;SDS011;13446;50.926;5.332;2024-02-16T03:23:32;3.75;;;2.30;;
25553;SDS011;13446;50.926;5.332;2024-02-16T03:25:58;4.15;;;2.30;;
25553;SDS011;13446;50.926;5.332;2024-02-16T03:28:24;5.30;;;2.38;;
25553;SDS011;13446;50.926;5.332;2024-02-16T03:30:50;5.88;;;3.00;;
25553;SDS011;13446;50.926;5.332;2024-02-16T03:33:16;7.28;;;2.60;;
25553;SDS011;13446;50.926;5.332;2024-02-16T03:35:41;5.40;;;2.33;;
25553;SDS011;13446;50.926;5.332;2024-02-16T03:38:09;8.52;;;2.65;;
25553;SDS011;13446;50.926;5.332;2024-02-16T03:40:34;5.05;;;2.30;;
25553;SDS011;13446;50.926;5.332;2024-02-16T03:43:00;4.78;;;2.47;;
25553;SDS011;13446;50.926;5.332;2024-02-16T03:45:26;8.20;;;2.47;;
25553;SDS011;13446;50.926;5.332;2024-02-16T03:47:54;6.68;;;2.60;;
25553;SDS011;13446;50.926;5.332;2024-02-16T03:50:20;5.00;;;2.35;;
25553;SDS011;13446;50.926;5.332;2024-02-16T03:52:47;5.32;;;2.90;;
25553;SDS011;13446;50.926;5.332;2024-02-16T03:55:13;10.57;;;2.55;;
25553;SDS011;13446;50.926;5.332;2024-02-16T03:57:39;5.53;;;2.50;;
25553;SDS011;13446;50.926;5.332;2024-02-16T04:00:06;6.97;;;2.75;;
25553;SDS011;13446;50.926;5.332;2024-02-16T04:02:33;4.05;;;2.47;;
25553;SDS011;13446;50.926;5.332;2024-02-16T04:05:01;6.85;;;2.22;;
25553;SDS011;13446;50.926;5.332;2024-02-16T04:07:36;7.70;;;3.10;;
25553;SDS011;13446;50.926;5.332;2024-02-16T04:13:11;7.60;;;2.72;;
25553;SDS011;13446;50.926;5.332;2024-02-16T04:15:37;5.05;;;2.25;;
25553;SDS011;13446;50.926;5.332;2024-02-16T04:18:27;3.65;;;2.47;;
25553;SDS011;13446;50.926;5.332;2024-02-16T04:21:11;5.00;;;2.65;;
25553;SDS011;13446;50.926;5.332;2024-02-16T04:23:37;6.07;;;2.38;;
25553;SDS011;13446;50.926;5.332;2024-02-16T04:26:03;6.35;;;2.50;;
25553;SDS011;13446;50.926;5.332;2024-02-16T04:28:46;4.10;;;2.40;;
25553;SDS011;13446;50.926;5.332;2024-02-16T04:31:12;5.47;;;2.22;;
25553;SDS011;13446;50.926;5.332;2024-02-16T04:33:38;6.15;;;2.42;;
25553;SDS011;13446;50.926;5.332;2024-02-16T04:36:15;4.25;;;2.20;;
25553;SDS011;13446;50.926;5.332;2024-02-16T04:38:44;4.20;;;2.33;;
25553;SDS011;13446;50.926;5.332;2024-02-16T04:41:10;7.57;;;2.60;;
25553;SDS011;13446;50.926;5.332;2024-02-16T04:43:48;5.53;;;2.53;;
25553;SDS011;13446;50.926;5.332;2024-02-16T04:46:34;7.03;;;2.70;;
25553;SDS011;13446;50.926;5.332;2024-02-16T04:49:00;5.60;;;2.50;;
25553;SDS011;13446;50.926;5.332;2024-02-16T04:51:25;8.80;;;2.33;;
25553;SDS011;13446;50.926;5.332;2024-02-16T04:53:51;5.78;;;2.55;;
25553;SDS011;13446;50.926;5.332;2024-02-16T04:56:17;4.18;;;2.50;;
25553;SDS011;13446;50.926;5.332;2024-02-16T04:59:04;4.95;;;2.30;;
25553;SDS011;13446;50.926;5.332;2024-02-16T05:01:30;7.32;;;2.53;;
25553;SDS011;13446;50.926;5.332;2024-02-16T05:03:57;7.65;;;2.63;;
25553;SDS011;13446;50.926;5.332;2024-02-16T05:06:24;4.88;;;2.40;;
25553;SDS011;13446;50.926;5.332;2024-02-16T05:08:50;3.25;;;2.38;;
25553;SDS011;13446;50.926;5.332;2024-02-16T05:11:16;7.55;;;2.13;;
25553;SDS011;13446;50.926;5.332;2024-02-16T05:13:51;7.05;;;2.42;;
25553;SDS011;13446;50.926;5.332;2024-02-16T05:16:29;6.07;;;2.70;;
25553;SDS011;13446;50.926;5.332;2024-02-16T05:19:03;9.25;;;2.72;;
25553;SDS011;13446;50.926;5.332;2024-02-16T05:21:34;12.65;;;2.88;;
25553;SDS011;13446;50.926;5.332;2024-02-16T05:24:00;5.28;;;2.80;;
25553;SDS011;13446;50.926;5.332;2024-02-16T05:26:36;5.07;;;2.65;;
25553;SDS011;13446;50.926;5.332;2024-02-16T05:29:02;5.93;;;2.40;;
25553;SDS011;13446;50.926;5.332;2024-02-16T05:31:28;4.07;;;2.60;;
25553;SDS011;13446;50.926;5.332;2024-02-16T05:33:56;8.68;;;2.20;;
25553;SDS011;13446;50.926;5.332;2024-02-16T05:36:22;7.10;;;2.47;;
25553;SDS011;13446;50.926;5.332;2024-02-16T05:39:00;7.57;;;3.03;;
25553;SDS011;13446;50.926;5.332;2024-02-16T05:41:34;7.38;;;3.05;;
25553;SDS011;13446;50.926;5.332;2024-02-16T05:44:01;7.45;;;2.63;;
25553;SDS011;13446;50.926;5.332;2024-02-16T05:46:27;6.20;;;2.97;;
25553;SDS011;13446;50.926;5.332;2024-02-16T05:49:05;6.97;;;2.65;;
25553;SDS011;13446;50.926;5.332;2024-02-16T05:51:46;7.50;;;2.55;;
25553;SDS011;13446;50.926;5.332;2024-02-16T05:54:38;5.97;;;2.42;;
25553;SDS011;13446;50.926;5.332;2024-02-16T05:57:03;5.43;;;2.50;;
25553;SDS011;13446;50.926;5.332;2024-02-16T05:59:41;6.38;;;2.47;;
25553;SDS011;13446;50.926;5.332;2024-02-16T06:02:08;9.10;;;3.00;;
25553;SDS011;13446;50.926;5.332;2024-02-16T06:04:36;5.63;;;2.38;;
25553;SDS011;13446;50.926;5.332;2024-02-16T06:07:06;6.95;;;2.53;;
25553;SDS011;13446;50.926;5.332;2024-02-16T06:09:43;10.82;;;2.75;;
25553;SDS011;13446;50.926;5.332;2024-02-16T06:12:09;11.68;;;3.17;;
25553;SDS011;13446;50.926;5.332;2024-02-16T06:20:15;8.45;;;2.70;;
25553;SDS011;13446;50.926;5.332;2024-02-16T06:25:13;7.05;;;2.88;;
25553;SDS011;13446;50.926;5.332;2024-02-16T06:27:48;7.70;;;3.53;;
25553;SDS011;13446;50.926;5.332;2024-02-16T06:30:22;9.18;;;2.85;;
25553;SDS011;13446;50.926;5.332;2024-02-16T06:32:49;8.95;;;3.15;;
25553;SDS011;13446;50.926;5.332;2024-02-16T06:35:39;6.47;;;2.70;;
25553;SDS011;13446;50.926;5.332;2024-02-16T06:38:11;5.78;;;2.40;;
25553;SDS011;13446;50.926;5.332;2024-02-16T06:43:26;12.02;;;3.13;;
25553;SDS011;13446;50.926;5.332;2024-02-16T06:45:57;9.45;;;3.03;;
25553;SDS011;13446;50.926;5.332;2024-02-16T06:48:35;7.22;;;3.05;;
25553;SDS011;13446;50.926;5.332;2024-02-16T07:15:29;6.00;;;2.90;;
25553;SDS011;13446;50.926;5.332;2024-02-16T07:17:55;7.32;;;3.00;;
25553;SDS011;13446;50.926;5.332;2024-02-16T07:20:39;7.47;;;3.05;;
25553;SDS011;13446;50.926;5.332;2024-02-16T07:55:06;10.60;;;3.33;;
25553;SDS011;13446;50.926;5.332;2024-02-16T07:57:45;6.72;;;3.42;;
25553;SDS011;13446;50.926;5.332;2024-02-16T08:00:14;7.40;;;3.20;;
25553;SDS011;13446;50.926;5.332;2024-02-16T08:02:42;7.85;;;3.50;;
25553;SDS011;13446;50.926;5.332;2024-02-16T08:05:11;12.27;;;3.70;;
25553;SDS011;13446;50.926;5.332;2024-02-16T08:07:41;7.07;;;3.22;;
25553;SDS011;13446;50.926;5.332;2024-02-16T08:10:10;8.25;;;3.28;;
25553;SDS011;13446;50.926;5.332;2024-02-16T08:12:37;12.65;;;3.55;;
25553;SDS011;13446;50.926;5.332;2024-02-16T08:15:03;10.02;;;3.60;;
25553;SDS011;13446;50.926;5.332;2024-02-16T08:17:32;8.48;;;3.42;;
25553;SDS011;13446;50.926;5.332;2024-02-16T08:19:59;11.27;;;3.25;;
25553;SDS011;13446;50.926;5.332;2024-02-16T08:22:25;8.43;;;3.75;;
25553;SDS011;13446;50.926;5.332;2024-02-16T08:24:50;12.40;;;3.83;;
25553;SDS011;13446;50.926;5.332;2024-02-16T08:27:17;13.95;;;3.67;;
25553;SDS011;13446;50.926;5.332;2024-02-16T08:29:43;6.30;;;3.40;;
25553;SDS011;13446;50.926;5.332;2024-02-16T08:32:09;6.18;;;3.60;;
25553;SDS011;13446;50.926;5.332;2024-02-16T08:34:35;8.35;;;3.67;;
25553;SDS011;13446;50.926;5.332;2024-02-16T08:46:01;6.97;;;3.65;;
25553;SDS011;13446;50.926;5.332;2024-02-16T08:48:46;10.05;;;3.83;;
25553;SDS011;13446;50.926;5.332;2024-02-16T08:51:21;7.88;;;3.70;;
25553;SDS011;13446;50.926;5.332;2024-02-16T08:53:47;9.68;;;3.53;;
25553;SDS011;13446;50.926;5.332;2024-02-16T08:56:12;9.27;;;3.90;;
25553;SDS011;13446;50.926;5.332;2024-02-16T08:58:38;9.40;;;3.65;;
25553;SDS011;13446;50.926;5.332;2024-02-16T09:01:04;8.77;;;3.70;;
25553;SDS011;13446;50.926;5.332;2024-02-16T09:03:39;7.63;;;3.38;;
25553;SDS011;13446;50.926;5.332;2024-02-16T09:06:08;11.30;;;3.55;;
25553;SDS011;13446;50.926;5.332;2024-02-16T09:08:33;7.35;;;3.30;;
25553;SDS011;13446;50.926;5.332;2024-02-16T09:11:03;11.05;;;3.58;;
25553;SDS011;13446;50.926;5.332;2024-02-16T09:13:33;13.20;;;4.15;;
25553;SDS011;13446;50.926;5.332;2024-02-16T09:16:01;11.63;;;4.03;;
25553;SDS011;13446;50.926;5.332;2024-02-16T09:18:30;11.50;;;3.65;;
25553;SDS011;13446;50.926;5.332;2024-02-16T09:20:56;9.35;;;4.10;;
25553;SDS011;13446;50.926;5.332;2024-02-16T09:23:22;10.75;;;4.00;;
25553;SDS011;13446;50.926;5.332;2024-02-16T09:25:48;9.77;;;4.13;;
25553;SDS011;13446;50.926;5.332;2024-02-16T09:28:15;12.75;;;3.75;;
25553;SDS011;13446;50.926;5.332;2024-02-16T09:30:44;8.05;;;3.70;;
25553;SDS011;13446;50.926;5.332;2024-02-16T09:33:11;9.10;;;4.18;;
25553;SDS011;13446;50.926;5.332;2024-02-16T09:35:38;8.02;;;3.90;;
25553;SDS011;13446;50.926;5.332;2024-02-16T09:38:04;10.88;;;4.10;;
25553;SDS011;13446;50.926;5.332;2024-02-16T09:40:30;8.95;;;4.00;;
25553;SDS011;13446;50.926;5.332;2024-02-16T09:42:56;16.27;;;5.07;;
25553;SDS011;13446;50.926;5.332;2024-02-16T09:45:23;11.48;;;4.57;;
25553;SDS011;13446;50.926;5.332;2024-02-16T09:47:51;12.05;;;4.50;;
25553;SDS011;13446;50.926;5.332;2024-02-16T09:50:20;9.38;;;3.78;;
25553;SDS011;13446;50.926;5.332;2024-02-16T09:52:48;13.93;;;4.00;;
25553;SDS011;13446;50.926;5.332;2024-02-16T09:55:15;8.75;;;4.45;;
25553;SDS011;13446;50.926;5.332;2024-02-16T09:57:44;11.82;;;4.70;;
25553;SDS011;13446;50.926;5.332;2024-02-16T10:00:11;12.88;;;4.50;;
25553;SDS011;13446;50.926;5.332;2024-02-16T10:02:45;11.65;;;4.38;;
25553;SDS011;13446;50.926;5.332;2024-02-16T10:07:38;12.88;;;4.28;;
25553;SDS011;13446;50.926;5.332;2024-02-16T10:15:31;12.43;;;4.60;;
25553;SDS011;13446;50.926;5.332;2024-02-16T10:18:01;14.68;;;4.45;;
25553;SDS011;13446;50.926;5.332;2024-02-16T10:20:29;10.18;;;4.50;;
25553;SDS011;13446;50.926;5.332;2024-02-16T10:25:37;12.52;;;4.63;;
25553;SDS011;13446;50.926;5.332;2024-02-16T10:28:09;12.27;;;4.75;;
25553;SDS011;13446;50.926;5.332;2024-02-16T10:30:39;10.23;;;4.72;;
25553;SDS011;13446;50.926;5.332;2024-02-16T10:33:08;14.85;;;4.28;;
25553;SDS011;13446;50.926;5.332;2024-02-16T10:35:34;14.50;;;4.97;;
25553;SDS011;13446;50.926;5.332;2024-02-16T10:38:02;14.98;;;4.88;;
25553;SDS011;13446;50.926;5.332;2024-02-16T10:40:38;10.73;;;5.10;;
25553;SDS011;13446;50.926;5.332;2024-02-16T10:43:06;13.15;;;5.40;;
25553;SDS011;13446;50.926;5.332;2024-02-16T10:45:33;15.25;;;5.18;;
25553;SDS011;13446;50.926;5.332;2024-02-16T10:48:00;13.40;;;5.57;;
25553;SDS011;13446;50.926;5.332;2024-02-16T10:50:33;12.13;;;5.15;;
25553;SDS011;13446;50.926;5.332;2024-02-16T10:53:24;14.88;;;5.03;;
25553;SDS011;13446;50.926;5.332;2024-02-16T10:55:56;11.35;;;5.63;;
25553;SDS011;13446;50.926;5.332;2024-02-16T10:58:24;13.73;;;5.38;;
25553;SDS011;13446;50.926;5.332;2024-02-16T11:00:52;11.85;;;5.45;;
25553;SDS011;13446;50.926;5.332;2024-02-16T11:03:25;13.32;;;5.45;;
25553;SDS011;13446;50.926;5.332;2024-02-16T11:05:52;14.20;;;5.40;;
25553;SDS011;13446;50.926;5.332;2024-02-16T11:08:18;10.30;;;5.70;;
25553;SDS011;13446;50.926;5.332;2024-02-16T11:11:01;12.52;;;5.80;;
25553;SDS011;13446;50.926;5.332;2024-02-16T11:13:33;16.90;;;6.10;;
25553;SDS011;13446;50.926;5.332;2024-02-16T11:16:02;13.27;;;6.10;;
25553;SDS011;13446;50.926;5.332;2024-02-16T11:18:36;10.40;;;5.85;;
25553;SDS011;13446;50.926;5.332;2024-02-16T11:21:04;12.05;;;6.03;;
25553;SDS011;13446;50.926;5.332;2024-02-16T11:23:32;18.42;;;5.75;;
25553;SDS011;13446;50.926;5.332;2024-02-16T11:26:04;13.90;;;6.30;;
25553;SDS011;13446;50.926;5.332;2024-02-16T11:28:34;17.52;;;6.38;;
25553;SDS011;13446;50.926;5.332;2024-02-16T11:31:00;12.80;;;6.18;;
25553;SDS011;13446;50.926;5.332;2024-02-16T11:33:27;19.38;;;7.32;;
25553;SDS011;13446;50.926;5.332;2024-02-16T11:36:01;15.95;;;7.53;;
25553;SDS011;13446;50.926;5.332;2024-02-16T11:38:30;15.38;;;7.50;;
25553;SDS011;13446;50.926;5.332;2024-02-16T11:41:01;19.98;;;7.82;;
25553;SDS011;13446;50.926;5.332;2024-02-16T11:43:29;16.73;;;7.95;;
25553;SDS011;13446;50.926;5.332;2024-02-16T11:45:57;22.13;;;8.25;;
25553;SDS011;13446;50.926;5.332;2024-02-16T11:48:24;19.65;;;8.40;;
25553;SDS011;13446;50.926;5.332;2024-02-16T11:51:00;17.65;;;7.85;;
25553;SDS011;13446;50.926;5.332;2024-02-16T11:53:28;17.48;;;8.57;;
25553;SDS011;13446;50.926;5.332;2024-02-16T11:55:55;20.50;;;8.35;;
25553;SDS011;13446;50.926;5.332;2024-02-16T11:58:20;17.83;;;8.38;;
25553;SDS011;13446;50.926;5.332;2024-02-16T12:00:47;23.40;;;8.77;;
25553;SDS011;13446;50.926;5.332;2024-02-16T12:03:20;24.98;;;9.48;;
25553;SDS011;13446;50.926;5.332;2024-02-16T12:05:51;15.93;;;8.60;;
25553;SDS011;13446;50.926;5.332;2024-02-16T12:08:23;19.42;;;9.27;;
25553;SDS011;13446;50.926;5.332;2024-02-16T12:10:56;21.70;;;8.98;;
25553;SDS011;13446;50.926;5.332;2024-02-16T12:13:22;25.83;;;10.02;;
25553;SDS011;13446;50.926;5.332;2024-02-16T12:15:49;18.20;;;8.75;;
25553;SDS011;13446;50.926;5.332;2024-02-16T12:18:25;21.02;;;9.02;;
25553;SDS011;13446;50.926;5.332;2024-02-16T12:20:58;21.05;;;8.70;;
25553;SDS011;13446;50.926;5.332;2024-02-16T12:23:31;23.73;;;9.60;;
25553;SDS011;13446;50.926;5.332;2024-02-16T12:26:00;21.40;;;8.82;;
25553;SDS011;13446;50.926;5.332;2024-02-16T12:28:29;29.20;;;10.32;;
25553;SDS011;13446;50.926;5.332;2024-02-16T12:30:59;21.73;;;9.32;;
25553;SDS011;13446;50.926;5.332;2024-02-16T12:33:25;19.42;;;9.23;;
25553;SDS011;13446;50.926;5.332;2024-02-16T12:35:54;19.08;;;10.02;;
25553;SDS011;13446;50.926;5.332;2024-02-16T12:38:20;22.50;;;10.32;;
25553;SDS011;13446;50.926;5.332;2024-02-16T12:40:48;24.27;;;10.90;;
25553;SDS011;13446;50.926;5.332;2024-02-16T12:43:14;21.70;;;10.75;;
25553;SDS011;13446;50.926;5.332;2024-02-16T12:45:40;19.60;;;11.25;;
25553;SDS011;13446;50.926;5.332;2024-02-16T12:48:06;20.75;;;11.80;;
25553;SDS011;13446;50.926;5.332;2024-02-16T12:50:35;32.10;;;11.40;;
25553;SDS011;13446;50.926;5.332;2024-02-16T12:53:04;23.98;;;11.70;;
25553;SDS011;13446;50.926;5.332;2024-02-16T12:55:30;19.05;;;11.05;;
25553;SDS011;13446;50.926;5.332;2024-02-16T12:57:56;25.17;;;11.85;;
25553;SDS011;13446;50.926;5.332;2024-02-16T13:00:21;33.33;;;11.93;;
25553;SDS011;13446;50.926;5.332;2024-02-16T13:02:51;21.92;;;10.73;;
25553;SDS011;13446;50.926;5.332;2024-02-16T13:05:18;24.88;;;12.50;;
25553;SDS011;13446;50.926;5.332;2024-02-16T13:07:44;24.52;;;11.68;;
25553;SDS011;13446;50.926;5.332;2024-02-16T13:10:13;24.23;;;11.00;;
25553;SDS011;13446;50.926;5.332;2024-02-16T13:12:47;28.38;;;12.27;;
25553;SDS011;13446;50.926;5.332;2024-02-16T13:15:15;24.15;;;12.32;;
25553;SDS011;13446;50.926;5.332;2024-02-16T13:17:41;22.13;;;11.35;;
25553;SDS011;13446;50.926;5.332;2024-02-16T13:20:09;20.05;;;11.43;;
25553;SDS011;13446;50.926;5.332;2024-02-16T13:22:38;21.42;;;11.15;;
25553;SDS011;13446;50.926;5.332;2024-02-16T13:25:04;22.33;;;11.15;;
25553;SDS011;13446;50.926;5.332;2024-02-16T13:27:32;23.38;;;11.02;;
25553;SDS011;13446;50.926;5.332;2024-02-16T13:29:59;19.65;;;11.27;;
25553;SDS011;13446;50.926;5.332;2024-02-16T13:32:25;23.98;;;11.32;;
25553;SDS011;13446;50.926;5.332;2024-02-16T13:35:19;22.98;;;11.52;;
25553;SDS011;13446;50.926;5.332;2024-02-16T13:37:54;16.90;;;10.77;;
25553;SDS011;13446;50.926;5.332;2024-02-16T13:40:22;18.63;;;11.98;;
25553;SDS011;13446;50.926;5.332;2024-02-16T13:43:06;21.40;;;11.73;;
25553;SDS011;13446;50.926;5.332;2024-02-16T13:52:16;14.25;;;8.05;;
25553;SDS011;13446;50.926;5.332;2024-02-16T13:54:42;13.75;;;6.60;;
25553;SDS011;13446;50.926;5.332;2024-02-16T14:14:53;6.75;;;5.40;;
25553;SDS011;13446;50.926;5.332;2024-02-16T14:17:19;9.73;;;7.22;;
25553;SDS011;13446;50.926;5.332;2024-02-16T14:20:03;8.57;;;5.82;;
25553;SDS011;13446;50.926;5.332;2024-02-16T14:42:56;11.85;;;7.35;;
25553;SDS011;13446;50.926;5.332;2024-02-16T14:45:37;9.05;;;6.60;;
25553;SDS011;13446;50.926;5.332;2024-02-16T14:50:52;9.27;;;7.22;;
25553;SDS011;13446;50.926;5.332;2024-02-16T14:53:22;10.55;;;7.47;;
25553;SDS011;13446;50.926;5.332;2024-02-16T14:56:03;10.98;;;7.53;;
25553;SDS011;13446;50.926;5.332;2024-02-16T14:58:35;10.23;;;7.88;;
25553;SDS011;13446;50.926;5.332;2024-02-16T15:04:13;19.77;;;12.03;;
25553;SDS011;13446;50.926;5.332;2024-02-16T15:06:51;11.68;;;8.50;;
25553;SDS011;13446;50.926;5.332;2024-02-16T15:09:29;14.23;;;7.53;;
25553;SDS011;13446;50.926;5.332;2024-02-16T15:12:10;8.95;;;7.28;;
25553;SDS011;13446;50.926;5.332;2024-02-16T15:15:04;12.05;;;7.90;;
25553;SDS011;13446;50.926;5.332;2024-02-16T15:20:21;8.63;;;7.20;;
25553;SDS011;13446;50.926;5.332;2024-02-16T15:22:51;10.13;;;7.88;;
25553;SDS011;13446;50.926;5.332;2024-02-16T15:25:25;21.02;;;13.73;;
25553;SDS011;13446;50.926;5.332;2024-02-16T15:28:09;14.65;;;10.23;;
25553;SDS011;13446;50.926;5.332;2024-02-16T15:30:49;8.50;;;7.05;;
25553;SDS011;13446;50.926;5.332;2024-02-16T15:33:14;9.43;;;6.50;;
25553;SDS011;13446;50.926;5.332;2024-02-16T15:36:33;9.73;;;6.75;;
25553;SDS011;13446;50.926;5.332;2024-02-16T15:39:08;8.07;;;7.28;;
25553;SDS011;13446;50.926;5.332;2024-02-16T15:41:47;9.20;;;7.13;;
25553;SDS011;13446;50.926;5.332;2024-02-16T15:56:42;10.98;;;7.43;;
25553;SDS011;13446;50.926;5.332;2024-02-16T15:59:24;9.82;;;7.50;;
25553;SDS011;13446;50.926;5.332;2024-02-16T16:01:50;11.38;;;8.00;;
25553;SDS011;13446;50.926;5.332;2024-02-16T16:04:28;11.52;;;8.15;;
25553;SDS011;13446;50.926;5.332;2024-02-16T16:15:21;9.75;;;7.00;;
25553;SDS011;13446;50.926;5.332;2024-02-16T16:20:22;7.90;;;6.80;;
25553;SDS011;13446;50.926;5.332;2024-02-16T16:25:50;11.93;;;8.18;;
25553;SDS011;13446;50.926;5.332;2024-02-16T16:28:28;11.82;;;9.13;;
25553;SDS011;13446;50.926;5.332;2024-02-16T16:30:54;10.50;;;9.07;;
25553;SDS011;13446;50.926;5.332;2024-02-16T16:33:38;11.70;;;8.85;;
25553;SDS011;13446;50.926;5.332;2024-02-16T16:36:04;10.43;;;9.32;;
25553;SDS011;13446;50.926;5.332;2024-02-16T16:38:38;10.27;;;9.13;;
25553;SDS011;13446;50.926;5.332;2024-02-16T16:41:06;10.95;;;9.85;;
25553;SDS011;13446;50.926;5.332;2024-02-16T16:43:34;11.38;;;10.25;;
25553;SDS011;13446;50.926;5.332;2024-02-16T16:46:00;11.80;;;10.43;;
25553;SDS011;13446;50.926;5.332;2024-02-16T16:48:26;11.18;;;10.00;;
25553;SDS011;13446;50.926;5.332;2024-02-16T16:50:57;11.82;;;9.80;;
25553;SDS011;13446;50.926;5.332;2024-02-16T16:53:24;10.65;;;9.55;;
25553;SDS011;13446;50.926;5.332;2024-02-16T16:55:50;11.73;;;10.30;;
25553;SDS011;13446;50.926;5.332;2024-02-16T16:58:16;12.93;;;10.60;;
25553;SDS011;13446;50.926;5.332;2024-02-16T17:00:43;12.60;;;10.57;;
25553;SDS011;13446;50.926;5.332;2024-02-16T17:03:09;12.55;;;10.55;;
25553;SDS011;13446;50.926;5.332;2024-02-16T17:05:34;14.88;;;12.15;;
25553;SDS011;13446;50.926;5.332;2024-02-16T17:08:00;18.17;;;13.18;;
25553;SDS011;13446;50.926;5.332;2024-02-16T17:10:26;16.98;;;13.45;;
25553;SDS011;13446;50.926;5.332;2024-02-16T17:12:52;20.35;;;14.48;;
25553;SDS011;13446;50.926;5.332;2024-02-16T17:15:18;19.48;;;14.98;;
25553;SDS011;13446;50.926;5.332;2024-02-16T17:17:43;19.73;;;15.68;;
25553;SDS011;13446;50.926;5.332;2024-02-16T17:20:26;16.48;;;14.07;;
25553;SDS011;13446;50.926;5.332;2024-02-16T17:22:52;23.08;;;16.55;;
25553;SDS011;13446;50.926;5.332;2024-02-16T17:25:19;21.75;;;16.55;;
25553;SDS011;13446;50.926;5.332;2024-02-16T17:27:52;23.60;;;16.98;;
25553;SDS011;13446;50.926;5.332;2024-02-16T17:30:18;19.35;;;16.35;;
25553;SDS011;13446;50.926;5.332;2024-02-16T17:32:45;25.17;;;17.42;;
25553;SDS011;13446;50.926;5.332;2024-02-16T17:35:15;24.20;;;18.67;;
25553;SDS011;13446;50.926;5.332;2024-02-16T17:40:11;27.85;;;19.27;;
25553;SDS011;13446;50.926;5.332;2024-02-16T17:42:37;28.88;;;19.80;;
25553;SDS011;13446;50.926;5.332;2024-02-16T17:45:23;28.40;;;20.13;;